Time;durP1;ratioP1;P1;durP2;ratioP2;P2;SDS_P1;SDS_P2;PMS_P1;PMS_P2;Temp;Humidity;BMP_temperature;BMP_pressure;BME280_temperature;BME280_humidity;BME280_pressure;Samples;Min_cycle;Max_cycle;Signal;HPM_P1;HPM_P2
2022/06/09 04:44:21;;;;;;;13.38;5.55;;;;;;;20.05;75.64;99685.19;1700647;83;21078;-39
2022/06/09 04:46:49;;;;;;;9.88;5.28;;;;;;;20.39;74.81;99686.20;1676387;83;21077;-39
2022/06/09 04:49:22;;;;;;;16.95;6.45;;;;;;;20.60;73.43;99690.47;1674017;83;21552;-40
2022/06/09 04:51:50;;;;;;;11.45;6.08;;;;;;;20.83;72.16;99681.80;1684696;83;21519;-40
2022/06/09 04:54:22;;;;;;;14.28;7.28;;;;;;;21.07;71.45;99691.61;1709867;83;21640;-40
2022/06/09 04:56:49;;;;;;;17.10;7.80;;;;;;;21.28;69.52;99692.25;1717299;83;21572;-39
2022/06/09 04:59:17;;;;;;;18.32;7.28;;;;;;;21.48;68.19;99688.95;1691341;83;21106;-46
2022/06/09 05:01:50;;;;;;;13.78;8.30;;;;;;;21.69;66.96;99688.73;1717165;83;21122;-46
2022/06/09 05:04:20;;;;;;;15.90;8.73;;;;;;;21.87;65.76;99684.19;1698884;83;21078;-40
2022/06/09 05:06:49;;;;;;;17.42;8.58;;;;;;;22.05;65.97;99684.48;1717309;83;21122;-40
2022/06/09 05:09:17;;;;;;;17.00;8.83;;;;;;;22.23;65.00;99683.45;1694494;83;21148;-46
2022/06/09 05:11:56;;;;;;;12.80;8.10;;;;;;;22.41;64.88;99686.85;1663400;83;21573;-45
2022/06/09 05:14:30;;;;;;;15.90;8.30;;;;;;;22.60;64.58;99693.28;1670574;84;21079;-46
2022/06/09 05:17:05;;;;;;;14.43;7.80;;;;;;;22.79;63.20;99693.08;1670784;85;21071;-39
2022/06/09 05:19:36;;;;;;;14.25;8.03;;;;;;;22.95;62.08;99687.20;1653483;85;21039;-40
2022/06/09 05:22:05;;;;;;;15.72;9.08;;;;;;;23.12;61.24;99690.66;1625785;86;21127;-39
2022/06/09 05:24:33;;;;;;;17.92;8.13;;;;;;;23.26;61.21;99682.20;1676791;84;21562;-40
2022/06/09 05:27:00;;;;;;;12.82;7.62;;;;;;;23.44;59.52;99691.36;1642604;86;21043;-40
2022/06/09 05:29:33;;;;;;;12.93;7.28;;;;;;;23.57;58.38;99689.14;1672852;84;21377;-41
2022/06/09 05:32:03;;;;;;;13.32;7.12;;;;;;;23.72;57.88;99694.03;1670430;84;21125;-39
2022/06/09 05:34:31;;;;;;;12.35;6.17;;;;;;;23.87;55.25;99689.02;1646222;85;21065;-40
2022/06/09 05:37:02;;;;;;;9.98;6.80;;;;;;;24.03;54.30;99693.39;1668820;85;21075;-40
2022/06/09 05:44:50;;;;;;;19.00;6.55;;;;;;;24.34;52.79;99696.23;1633492;85;21086;-40
2022/06/09 05:45:00;;;;;;;13.60;6.50;;;;;;;24.51;51.03;99693.80;1698283;83;21037;-39
2022/06/09 05:47:31;;;;;;;9.43;6.00;;;;;;;24.66;50.51;99693.64;1664928;85;21983;-40
2022/06/09 05:50:09;;;;;;;11.05;6.25;;;;;;;24.80;49.93;99694.51;1688791;83;21074;-39
2022/06/09 05:52:44;;;;;;;9.50;6.17;;;;;;;24.93;49.30;99698.05;1690808;84;21098;-40
2022/06/09 05:55:16;;;;;;;15.90;6.30;;;;;;;25.06;48.34;99694.11;1645117;85;21027;-40
2022/06/09 05:57:45;;;;;;;21.68;6.58;;;;;;;25.17;48.12;99692.39;1691260;83;21049;-39
2022/06/09 06:00:16;;;;;;;14.25;6.40;;;;;;;25.37;48.04;99694.99;1667611;84;21042;-39
2022/06/09 06:02:44;;;;;;;15.45;6.33;;;;;;;25.37;48.04;99694.99;1670119;83;21233;-41
2022/06/09 06:08:03;;;;;;;17.50;5.87;;;;;;;25.61;46.00;99697.74;1688573;85;21002;-40
2022/06/09 06:10:34;;;;;;;7.78;4.65;;;;;;;25.73;45.65;99696.00;1688378;84;21121;-40
2022/06/09 06:13:08;;;;;;;12.75;4.62;;;;;;;25.82;44.33;99691.37;1689139;85;21082;-40
2022/06/09 06:15:49;;;;;;;14.87;6.00;;;;;;;25.93;44.21;99691.93;1688763;85;21545;-40
2022/06/09 06:18:18;;;;;;;9.08;3.90;;;;;;;26.04;44.64;99687.13;1670092;84;21026;-41
2022/06/09 06:20:50;;;;;;;14.03;4.78;;;;;;;26.13;41.83;99689.97;1663954;85;21062;-40
2022/06/09 06:23:17;;;;;;;15.43;5.20;;;;;;;26.19;41.91;99688.66;1687934;84;21536;-40
2022/06/09 06:25:49;;;;;;;8.93;4.25;;;;;;;26.26;42.37;99689.41;1690626;83;21558;-40
2022/06/09 06:28:20;;;;;;;14.68;3.98;;;;;;;26.35;42.20;99689.72;1687518;83;21624;-40
2022/06/09 06:30:48;;;;;;;12.80;4.35;;;;;;;26.41;41.20;99684.78;1689543;85;21022;-46
2022/06/09 06:33:17;;;;;;;17.98;4.53;;;;;;;26.46;40.70;99683.09;1670355;85;21026;-41
2022/06/09 06:35:44;;;;;;;9.08;4.33;;;;;;;26.51;41.27;99684.46;1688486;85;21031;-47
2022/06/09 06:38:15;;;;;;;10.95;4.83;;;;;;;26.58;40.07;99686.19;1691927;83;21038;-39
2022/06/09 06:40:43;;;;;;;7.87;3.40;;;;;;;26.63;40.45;99680.48;1689234;84;21007;-40
2022/06/09 06:43:17;;;;;;;7.50;3.75;;;;;;;26.72;40.73;99682.44;1686537;83;21546;-40
2022/06/09 06:45:46;;;;;;;8.55;3.67;;;;;;;26.83;40.47;99684.31;1666737;84;21587;-48
2022/06/09 06:48:13;;;;;;;8.40;3.58;;;;;;;26.93;40.62;99687.51;1687481;84;21100;-46
2022/06/09 06:50:42;;;;;;;6.65;3.42;;;;;;;27.00;40.05;99689.23;1690393;84;21531;-40
2022/06/09 06:53:12;;;;;;;8.35;3.08;;;;;;;27.07;38.72;99693.66;1685365;83;21072;-40
2022/06/09 06:55:39;;;;;;;8.78;3.40;;;;;;;27.11;39.18;99695.14;1687183;83;21064;-40
2022/06/09 06:58:08;;;;;;;3.77;2.95;;;;;;;27.14;38.16;99685.52;1671001;84;21055;-40
2022/06/09 07:00:40;;;;;;;7.33;3.52;;;;;;;27.16;38.93;99691.13;1693110;83;21571;-46
2022/06/09 07:03:09;;;;;;;5.83;2.93;;;;;;;27.21;38.38;99686.25;1692665;83;21038;-47
2022/06/09 07:05:37;;;;;;;7.47;3.37;;;;;;;27.24;38.06;99688.67;1692202;84;21294;-41
2022/06/09 07:08:06;;;;;;;5.92;3.22;;;;;;;27.32;37.77;99682.72;1692139;83;21033;-42
2022/06/09 07:10:35;;;;;;;7.85;3.05;;;;;;;27.32;37.45;99680.04;1666786;83;21472;-47
2022/06/09 07:13:03;;;;;;;4.78;2.77;;;;;;;27.30;38.41;99682.82;1685713;83;21713;-41
2022/06/09 07:15:32;;;;;;;6.92;3.22;;;;;;;27.37;38.45;99683.22;1660202;83;21033;-42
2022/06/09 07:18:20;;;;;;;8.20;2.65;;;;;;;27.48;37.82;99683.68;1675103;82;21128;-48
2022/06/09 07:20:54;;;;;;;6.08;2.80;;;;;;;27.56;37.00;99682.59;1665952;85;20966;-49
2022/06/09 07:23:22;;;;;;;8.20;2.75;;;;;;;27.62;37.26;99678.08;1644343;85;21025;-47
2022/06/09 07:25:49;;;;;;;11.73;3.25;;;;;;;27.60;37.18;99677.36;1652694;85;21064;-47
2022/06/09 07:28:16;;;;;;;8.88;3.15;;;;;;;27.49;37.38;99680.89;1698841;83;21048;-42
2022/06/09 07:30:46;;;;;;;5.50;3.05;;;;;;;27.42;37.47;99689.05;1664648;84;21627;-47
2022/06/09 07:33:15;;;;;;;11.30;3.50;;;;;;;27.37;37.52;99688.59;1697530;82;21002;-49
2022/06/09 07:35:43;;;;;;;11.78;3.60;;;;;;;27.33;37.44;99687.60;1661836;85;21612;-41
2022/06/09 07:38:11;;;;;;;9.40;3.77;;;;;;;27.24;37.14;99689.16;1686523;83;21702;-41
2022/06/09 07:40:40;;;;;;;8.50;2.87;;;;;;;27.12;36.99;99688.79;1695713;82;21086;-47
2022/06/09 07:43:08;;;;;;;11.97;3.37;;;;;;;27.11;37.44;99686.59;1638647;85;21499;-41
2022/06/09 07:45:36;;;;;;;16.82;3.47;;;;;;;27.23;38.04;99691.48;1684455;83;21031;-48
2022/06/09 07:48:05;;;;;;;8.95;3.60;;;;;;;27.41;37.78;99684.66;1671603;84;21025;-46
2022/06/09 07:50:34;;;;;;;7.35;3.62;;;;;;;27.63;36.20;99683.81;1687259;83;21586;-42
2022/06/09 07:53:03;;;;;;;5.20;3.33;;;;;;;27.78;35.74;99681.77;1716581;82;21090;-40
2022/06/09 07:55:30;;;;;;;7.22;3.65;;;;;;;27.77;35.50;99680.91;1678330;82;21091;-40
2022/06/09 07:57:57;;;;;;;8.53;3.87;;;;;;;27.71;35.51;99685.89;1666965;83;21076;-46
2022/06/09 08:00:25;;;;;;;12.33;3.80;;;;;;;27.66;35.76;99674.63;1671400;83;21017;-47
2022/06/09 08:02:52;;;;;;;6.28;3.42;;;;;;;27.57;35.72;99675.75;1689710;83;21495;-47
2022/06/09 08:05:22;;;;;;;8.23;4.05;;;;;;;27.52;36.55;99677.09;1686015;84;21077;-43
2022/06/09 08:07:49;;;;;;;5.00;3.55;;;;;;;27.50;36.27;99677.72;1691162;83;21052;-41
2022/06/09 08:13:46;;;;;;;7.25;3.42;;;;;;;27.62;34.96;99669.16;1687680;83;21143;-39
2022/06/09 08:16:15;;;;;;;5.58;3.40;;;;;;;27.72;34.79;99673.70;1720304;82;21577;-40
2022/06/09 08:18:42;;;;;;;4.55;3.12;;;;;;;27.84;34.82;99668.67;1712131;81;21122;-47
2022/06/09 08:21:10;;;;;;;8.95;3.50;;;;;;;28.03;34.63;99672.54;1738839;81;21020;-47
2022/06/09 08:23:37;;;;;;;12.82;3.58;;;;;;;28.03;34.12;99671.20;1754789;81;21051;-39
2022/06/09 08:26:05;;;;;;;7.15;3.70;;;;;;;27.99;33.83;99672.42;1744260;81;22074;-42
2022/06/09 08:28:33;;;;;;;7.55;3.40;;;;;;;27.95;34.09;99675.87;1746616;81;21534;-40
2022/06/09 08:31:00;;;;;;;13.32;3.52;;;;;;;27.95;34.39;99669.61;1756153;81;21051;-47
2022/06/09 08:33:28;;;;;;;11.18;3.90;;;;;;;27.95;34.40;99670.49;1755914;81;20998;-45
2022/06/09 08:35:55;;;;;;;4.03;3.50;;;;;;;27.92;34.75;99670.73;1761982;81;20982;-47
2022/06/09 08:38:22;;;;;;;4.95;3.45;;;;;;;27.86;34.94;99665.00;1754009;81;21012;-47
2022/06/09 08:41:13;;;;;;;6.22;3.00;;;;;;;27.84;35.21;99669.17;1699652;82;21535;-47
2022/06/09 08:43:47;;;;;;;5.90;2.93;;;;;;;27.86;35.43;99663.17;1715471;82;21052;-46
2022/06/09 08:46:53;;;;;;;5.87;2.90;;;;;;;27.83;35.59;99664.29;1702281;83;21661;-42
2022/06/09 08:49:32;;;;;;;12.30;3.27;;;;;;;27.82;35.66;99669.27;1723301;82;21070;-42
2022/06/09 08:52:06;;;;;;;6.00;3.42;;;;;;;27.84;35.67;99664.64;1635867;86;21101;-42
2022/06/09 08:54:36;;;;;;;5.28;3.35;;;;;;;27.90;35.82;99667.33;1634779;86;21029;-47
2022/06/09 08:57:17;;;;;;;9.20;3.20;;;;;;;27.93;35.48;99672.43;1631121;86;21080;-47
2022/06/09 08:59:50;;;;;;;7.92;3.75;;;;;;;27.95;35.78;99669.61;1613302;87;21194;-48
2022/06/09 09:02:40;;;;;;;7.62;3.62;;;;;;;27.96;35.80;99667.31;1632945;87;21037;-47
2022/06/09 09:05:26;;;;;;;7.95;3.83;;;;;;;27.97;35.73;99668.52;1637494;87;21108;-47
2022/06/09 09:07:56;;;;;;;3.87;2.87;;;;;;;27.97;35.48;99665.83;1639862;87;21533;-47
2022/06/09 09:10:33;;;;;;;7.80;3.98;;;;;;;28.12;35.89;99667.73;1636693;87;21622;-41
2022/06/09 09:13:19;;;;;;;4.70;3.00;;;;;;;28.23;34.71;99669.04;1599453;89;21051;-42
2022/06/09 09:15:58;;;;;;;8.25;2.62;;;;;;;28.27;34.81;99662.44;1594991;89;21086;-47
2022/06/09 09:18:53;;;;;;;9.08;3.17;;;;;;;28.29;34.86;99669.02;1583212;89;21024;-48
2022/06/09 09:22:06;;;;;;;10.15;3.30;;;;;;;28.24;34.93;99665.39;1592611;89;21000;-43
2022/06/09 09:25:20;;;;;;;5.08;3.20;;;;;;;28.14;34.55;99671.66;1597774;89;21142;-48
2022/06/09 09:28:27;;;;;;;7.53;3.15;;;;;;;28.01;35.56;99679.39;1594310;89;21199;-41
2022/06/09 09:31:45;;;;;;;6.87;3.20;;;;;;;27.90;36.16;99674.04;1614672;87;21036;-41
2022/06/09 09:34:32;;;;;;;5.00;2.52;;;;;;;27.82;36.41;99671.11;1642513;86;21658;-41
2022/06/09 09:37:36;;;;;;;4.87;2.77;;;;;;;27.70;36.88;99679.67;1666034;86;21085;-41
2022/06/09 09:40:21;;;;;;;6.95;2.87;;;;;;;27.61;37.31;99669.66;1665312;86;21627;-42
2022/06/09 09:42:52;;;;;;;5.72;3.00;;;;;;;27.55;37.61;99677.72;1659012;85;21004;-47
2022/06/09 09:45:23;;;;;;;5.28;2.90;;;;;;;27.52;37.83;99665.01;1681330;84;21127;-47
2022/06/09 09:48:00;;;;;;;9.08;3.02;;;;;;;27.53;37.50;99675.63;1654491;85;21878;-47
2022/06/09 09:50:57;;;;;;;5.53;3.37;;;;;;;27.55;37.70;99672.34;1673108;83;21057;-43
2022/06/09 09:53:44;;;;;;;9.58;3.00;;;;;;;27.64;37.37;99672.56;1721292;82;21455;-47
2022/06/09 09:56:22;;;;;;;11.83;3.45;;;;;;;27.76;37.43;99664.89;1699227;83;21127;-40
2022/06/09 09:58:57;;;;;;;4.67;2.90;;;;;;;27.97;36.86;99669.86;1689438;83;21112;-46
2022/06/09 10:10:17;;;;;;;8.23;3.50;;;;;;;28.63;34.38;99655.81;1723748;83;21170;-41
2022/06/09 10:12:45;;;;;;;5.95;2.90;;;;;;;28.79;34.46;99654.52;1695727;83;20988;-47
2022/06/09 10:15:23;;;;;;;7.90;3.47;;;;;;;28.89;34.28;99654.09;1717259;83;21123;-40
2022/06/09 10:18:40;;;;;;;8.00;3.00;;;;;;;28.87;34.81;99658.23;1719272;82;21019;-40
2022/06/09 10:21:19;;;;;;;8.90;3.92;;;;;;;28.85;34.61;99652.64;1694705;83;21050;-42
2022/06/09 10:23:57;;;;;;;5.80;3.77;;;;;;;28.82;34.35;99648.39;1694916;83;21131;-40
2022/06/09 10:26:43;;;;;;;8.33;3.70;;;;;;;28.88;35.03;99649.70;1719395;83;21036;-46
2022/06/09 10:29:44;;;;;;;7.03;4.17;;;;;;;28.94;34.96;99649.70;1697148;83;21162;-47
2022/06/09 10:32:49;;;;;;;4.90;3.77;;;;;;;28.97;34.35;99646.23;1706981;83;21442;-46
2022/06/09 10:35:35;;;;;;;8.13;4.40;;;;;;;29.08;34.93;99640.77;1721158;83;21036;-41
2022/06/09 10:38:17;;;;;;;5.87;3.40;;;;;;;29.26;34.63;99649.06;1700623;83;21050;-41
2022/06/09 10:40:54;;;;;;;11.40;3.55;;;;;;;29.34;33.60;99642.99;1689126;83;21022;-47
2022/06/09 10:43:56;;;;;;;7.17;3.72;;;;;;;29.48;33.45;99643.98;1691819;85;21520;-40
2022/06/09 10:46:31;;;;;;;9.50;4.70;;;;;;;29.63;33.59;99637.28;1727139;81;21118;-40
2022/06/09 10:55:34;;;;;;;12.23;3.77;;;;;;;29.65;31.95;99635.78;1740866;81;21079;-46
2022/06/09 10:58:15;;;;;;;16.67;3.67;;;;;;;29.44;32.14;99634.46;1721159;83;21631;-48
2022/06/09 11:00:46;;;;;;;9.28;3.80;;;;;;;29.33;32.40;99633.21;1707780;81;21050;-47
2022/06/09 11:03:23;;;;;;;10.18;3.75;;;;;;;29.22;32.80;99630.12;1718662;81;21008;-46
2022/06/09 11:06:27;;;;;;;5.90;3.58;;;;;;;29.15;32.54;99627.11;1672097;83;21519;-46
2022/06/09 11:09:26;;;;;;;10.18;3.55;;;;;;;29.15;32.32;99628.45;1708065;83;22035;-46
2022/06/09 11:12:02;;;;;;;7.22;3.80;;;;;;;29.24;32.66;99617.39;1702598;83;21071;-47
2022/06/09 11:15:17;;;;;;;6.05;2.98;;;;;;;29.40;33.05;99615.55;1698552;83;21501;-46
2022/06/09 11:18:19;;;;;;;6.35;3.37;;;;;;;29.54;32.60;99610.29;1706800;83;20998;-46
2022/06/09 11:21:25;;;;;;;9.40;3.62;;;;;;;29.61;32.67;99616.83;1708481;83;21550;-47
2022/06/09 11:24:31;;;;;;;9.15;3.37;;;;;;;29.61;32.39;99623.06;1703683;83;21121;-46
2022/06/09 11:31:35;;;;;;;5.00;3.02;;;;;;;29.39;32.14;99615.16;1616552;87;21658;-40
2022/06/09 11:34:24;;;;;;;8.35;3.37;;;;;;;29.35;33.50;99607.87;1625976;86;21101;-46
2022/06/09 11:37:12;;;;;;;7.55;3.45;;;;;;;29.35;33.10;99615.95;1638989;86;21081;-46
2022/06/09 11:39:53;;;;;;;9.15;3.47;;;;;;;29.38;33.07;99609.42;1647756;86;21658;-41
2022/06/09 11:42:46;;;;;;;5.28;3.15;;;;;;;29.46;33.94;99606.91;1632838;86;21165;-41
2022/06/09 11:45:41;;;;;;;9.05;3.62;;;;;;;29.52;33.22;99613.13;1643088;86;21129;-41
2022/06/09 11:48:31;;;;;;;6.65;3.60;;;;;;;29.50;32.96;99608.32;1647440;86;21137;-47
2022/06/09 11:51:11;;;;;;;8.93;3.70;;;;;;;29.49;33.31;99606.63;1621435;85;21073;-47
2022/06/09 11:53:47;;;;;;;8.50;3.95;;;;;;;29.46;33.33;99605.56;1664725;85;21113;-47
2022/06/09 11:56:43;;;;;;;12.28;4.03;;;;;;;29.42;34.01;99601.43;1648633;86;21057;-47
2022/06/09 11:59:19;;;;;;;11.35;3.47;;;;;;;29.40;33.08;99606.96;1646247;85;21121;-41
2022/06/09 12:01:59;;;;;;;8.70;4.33;;;;;;;29.37;33.18;99609.06;1670785;86;21051;-47
2022/06/09 12:04:48;;;;;;;10.68;3.92;;;;;;;29.36;32.82;99607.37;1688884;81;21157;-41
2022/06/09 12:07:47;;;;;;;7.85;3.10;;;;;;;29.40;33.17;99596.69;1760683;81;21868;-46
2022/06/09 12:11:10;;;;;;;10.35;3.10;;;;;;;29.45;32.72;99595.75;1721770;82;21647;-47
2022/06/09 12:14:10;;;;;;;8.45;3.65;;;;;;;29.42;32.51;99597.39;1734226;81;21081;-47
2022/06/09 12:17:04;;;;;;;11.78;3.70;;;;;;;29.38;33.16;99594.60;1746357;81;21052;-41
2022/06/09 12:19:37;;;;;;;7.83;3.98;;;;;;;29.39;33.06;99589.56;1752009;82;21204;-47
2022/06/09 12:22:42;;;;;;;6.20;3.90;;;;;;;29.43;32.84;99591.00;1724968;82;21592;-41
2022/06/09 12:25:17;;;;;;;11.35;3.77;;;;;;;29.49;33.04;99589.61;1760781;81;21640;-47
2022/06/09 12:27:48;;;;;;;6.70;3.90;;;;;;;29.57;32.48;99585.28;1723545;82;21036;-41
2022/06/09 12:30:24;;;;;;;7.08;3.95;;;;;;;29.62;32.75;99584.84;1732961;81;21064;-41
2022/06/09 12:32:56;;;;;;;6.28;3.87;;;;;;;29.66;32.31;99587.13;1730787;81;21568;-41
2022/06/09 12:35:34;;;;;;;5.53;3.90;;;;;;;29.68;32.18;99584.28;1721479;82;21604;-48
2022/06/09 12:38:30;;;;;;;7.85;3.72;;;;;;;29.64;32.25;99590.97;1708147;81;21682;-48
2022/06/09 12:41:22;;;;;;;8.03;4.30;;;;;;;29.57;32.91;99592.02;1716267;82;21065;-47
2022/06/09 12:44:19;;;;;;;12.50;4.20;;;;;;;29.48;33.23;99582.02;1731315;83;21168;-47
2022/06/09 12:47:12;;;;;;;6.60;4.08;;;;;;;29.48;32.99;99582.52;1730559;83;21633;-41
2022/06/09 12:49:44;;;;;;;8.53;3.98;;;;;;;29.51;32.82;99580.38;1709363;82;21034;-47
2022/06/09 12:52:25;;;;;;;6.10;4.08;;;;;;;29.51;32.86;99579.03;1709843;82;21456;-41
2022/06/09 12:54:59;;;;;;;11.38;4.10;;;;;;;29.52;32.67;99582.14;1735335;82;21109;-41
2022/06/09 12:57:31;;;;;;;7.20;4.22;;;;;;;29.50;32.45;99573.79;1717638;82;21047;-49
2022/06/09 13:00:15;;;;;;;9.90;5.22;;;;;;;29.50;33.14;99580.03;1686585;84;21127;-41
2022/06/09 13:02:43;;;;;;;10.60;4.50;;;;;;;29.51;33.53;99581.73;1734901;82;21099;-41
2022/06/09 13:05:20;;;;;;;10.35;4.83;;;;;;;29.51;32.86;99579.03;1738142;82;21106;-47
2022/06/09 13:08:00;;;;;;;7.72;4.72;;;;;;;29.53;32.97;99578.95;1738246;82;21080;-41
2022/06/09 13:10:36;;;;;;;10.78;5.00;;;;;;;29.48;33.77;99582.52;1690355;82;21091;-48
2022/06/09 13:13:20;;;;;;;11.05;5.95;;;;;;;29.40;33.36;99575.13;1662714;82;21035;-42
2022/06/09 13:15:58;;;;;;;14.38;5.50;;;;;;;29.38;33.64;99577.94;1706301;83;21080;-41
2022/06/09 13:18:51;;;;;;;9.95;5.40;;;;;;;29.39;33.60;99576.09;1715849;82;21055;-46
2022/06/09 13:21:25;;;;;;;9.63;4.75;;;;;;;29.42;33.18;99582.57;1715942;81;21040;-41
2022/06/09 13:23:55;;;;;;;7.65;4.90;;;;;;;29.48;33.45;99579.33;1739079;82;21086;-47
2022/06/09 13:26:31;;;;;;;10.80;5.12;;;;;;;29.55;33.57;99589.09;1702489;83;21042;-47
2022/06/09 13:29:53;;;;;;;9.93;4.53;;;;;;;29.63;32.99;99586.54;1700451;83;21616;-47
2022/06/09 13:32:41;;;;;;;11.08;4.85;;;;;;;29.63;33.13;99586.07;1704122;84;21087;-42
2022/06/09 13:35:36;;;;;;;8.50;4.58;;;;;;;29.56;32.92;99583.55;1678040;84;21137;-47
2022/06/09 13:38:31;;;;;;;9.45;4.65;;;;;;;29.51;33.44;99586.27;1696438;84;21035;-41
2022/06/09 13:41:03;;;;;;;9.03;4.35;;;;;;;29.51;33.50;99587.61;1678126;84;21853;-42
2022/06/09 13:43:39;;;;;;;6.20;4.50;;;;;;;29.55;32.20;99587.23;1652002;86;21478;-41
2022/06/09 13:46:20;;;;;;;5.87;4.00;;;;;;;29.52;32.34;99579.91;1652748;85;21004;-48
2022/06/09 13:49:03;;;;;;;9.48;4.65;;;;;;;29.53;32.94;99587.03;1663544;86;21165;-40
2022/06/09 13:51:40;;;;;;;9.48;4.22;;;;;;;29.48;32.85;99587.41;1699861;84;21028;-46
2022/06/09 13:54:18;;;;;;;11.28;3.58;;;;;;;29.38;33.28;99583.83;1699766;84;21151;-47
2022/06/09 13:56:47;;;;;;;6.85;3.50;;;;;;;29.39;33.19;99576.95;1699416;84;21621;-48
2022/06/09 13:59:14;;;;;;;4.72;3.10;;;;;;;29.41;33.25;99576.84;1699601;84;21151;-40
2022/06/09 14:01:41;;;;;;;8.80;3.42;;;;;;;29.43;33.36;99573.50;1699842;84;21707;-41
2022/06/09 14:04:21;;;;;;;10.72;4.00;;;;;;;29.50;32.69;99569.75;1676282;84;21174;-47
2022/06/09 14:06:55;;;;;;;7.17;3.95;;;;;;;29.63;32.20;99568.55;1652872;84;21146;-41
2022/06/09 14:09:22;;;;;;;4.35;3.15;;;;;;;29.74;32.30;99566.20;1699727;84;21060;-48
2022/06/09 14:11:49;;;;;;;4.78;2.92;;;;;;;29.74;32.02;99563.51;1699722;84;21079;-41
2022/06/09 14:14:24;;;;;;;6.50;2.60;;;;;;;29.67;31.62;99564.56;1699610;84;21099;-47
2022/06/09 14:16:53;;;;;;;9.98;3.05;;;;;;;29.58;32.28;99560.03;1699919;84;21126;-47
2022/06/09 14:19:24;;;;;;;4.90;2.67;;;;;;;29.55;32.28;99557.60;1699939;84;21582;-47
2022/06/09 14:21:56;;;;;;;5.65;3.27;;;;;;;29.51;32.68;99556.63;1725654;83;21535;-41
